Time;durP1;ratioP1;P1;durP2;ratioP2;P2;SDS_P1;SDS_P2;PMS_P1;PMS_P2;Temp;Humidity;BMP_temperature;BMP_pressure;BME280_temperature;BME280_humidity;BME280_pressure;Samples;Min_cycle;Max_cycle;Signal;HPM_P1;HPM_P2
2023/11/17 00:00:58;;;;;;;31.35;19.40;;;9.50;99.90;;;8.93;100.00;101852.22;4187826;28;20033;-70
2023/11/17 00:02:59;;;;;;;35.50;21.33;;;9.50;99.90;;;8.94;100.00;101838.09;4187694;28;20021;-70
2023/11/17 00:05:00;;;;;;;26.15;17.45;;;9.50;99.90;;;9.04;100.00;101854.84;4195520;28;20020;-70
2023/11/17 00:07:03;;;;;;;16.75;11.02;;;9.60;99.90;;;9.06;100.00;101863.47;4196860;28;20021;-70
2023/11/17 00:09:05;;;;;;;12.48;6.75;;;9.60;99.90;;;9.12;100.00;101866.47;4187687;28;20132;-70
2023/11/17 00:11:06;;;;;;;9.52;5.57;;;9.70;99.90;;;9.19;100.00;101866.81;4187536;28;20071;-70
2023/11/17 00:13:07;;;;;;;10.85;5.45;;;9.70;99.90;;;9.20;100.00;101865.88;4192808;28;20103;-70
2023/11/17 00:15:11;;;;;;;13.38;9.75;;;9.70;99.90;;;9.23;100.00;101866.44;4202929;28;20098;-70
2023/11/17 00:17:12;;;;;;;17.95;11.27;;;9.80;99.90;;;9.28;100.00;101860.84;4204147;28;20545;-70
2023/11/17 00:19:14;;;;;;;16.92;11.02;;;9.80;99.90;;;9.30;100.00;101870.28;4203982;28;20016;-70
2023/11/17 00:21:15;;;;;;;14.40;8.35;;;9.80;99.90;;;9.33;100.00;101869.22;4204168;28;20031;-71
2023/11/17 00:23:16;;;;;;;8.00;3.85;;;9.80;99.90;;;9.31;100.00;101856.19;4202874;28;20500;-70
2023/11/17 00:25:17;;;;;;;4.78;2.53;;;9.80;99.90;;;9.33;100.00;101858.69;4192254;28;20079;-70
2023/11/17 00:27:18;;;;;;;5.78;2.40;;;9.90;99.90;;;9.34;100.00;101874.38;4200841;28;20024;-70
2023/11/17 00:29:19;;;;;;;8.52;3.28;;;9.90;99.90;;;9.38;100.00;101870.50;4199160;28;20078;-70
2023/11/17 00:31:21;;;;;;;5.40;2.33;;;9.90;99.90;;;9.42;100.00;101873.75;4187528;28;20127;-70
2023/11/17 00:33:22;;;;;;;7.05;3.80;;;9.90;99.90;;;9.44;100.00;101866.56;4193044;28;20062;-70
2023/11/17 00:35:23;;;;;;;10.55;3.40;;;10.00;99.90;;;9.48;100.00;101861.91;4187631;28;20033;-70
2023/11/17 00:37:25;;;;;;;7.88;4.93;;;10.00;99.90;;;9.49;100.00;101858.31;4187422;28;20021;-70
2023/11/17 00:39:28;;;;;;;6.75;3.45;;;10.00;99.90;;;9.49;100.00;101859.16;4187297;28;20029;-70
2023/11/17 00:41:28;;;;;;;7.43;4.20;;;10.10;99.90;;;9.52;100.00;101864.19;4187061;28;20040;-70
2023/11/17 00:43:31;;;;;;;10.88;5.50;;;10.10;99.90;;;9.53;100.00;101865.84;4215740;28;20065;-70
2023/11/17 00:45:32;;;;;;;7.68;4.32;;;10.10;99.90;;;9.53;100.00;101863.19;4198732;28;20483;-70
2023/11/17 00:47:33;;;;;;;7.53;3.38;;;10.10;99.90;;;9.55;100.00;101863.94;4203102;28;20094;-70
2023/11/17 00:49:34;;;;;;;5.38;2.05;;;10.20;99.90;;;9.57;100.00;101864.63;4202528;28;20028;-70
2023/11/17 00:51:35;;;;;;;6.90;2.42;;;10.10;99.90;;;9.61;100.00;101863.44;4185973;28;20029;-70
2023/11/17 00:53:36;;;;;;;3.92;1.80;;;10.10;99.90;;;9.61;100.00;101863.44;4187250;28;20021;-70
2023/11/17 00:55:37;;;;;;;4.22;1.42;;;10.20;99.90;;;9.65;100.00;101874.56;4187031;28;20032;-70
2023/11/17 00:57:38;;;;;;;2.78;0.98;;;10.10;99.90;;;9.63;100.00;101865.94;4186846;28;20500;-70
2023/11/17 00:59:39;;;;;;;5.72;1.30;;;10.20;99.90;;;9.63;100.00;101872.06;4186737;28;20037;-70
2023/11/17 01:01:40;;;;;;;3.85;1.50;;;10.20;99.90;;;9.63;100.00;101868.56;4187162;28;20017;-70
2023/11/17 01:03:41;;;;;;;6.07;2.55;;;10.20;99.90;;;9.65;100.00;101867.50;4201380;28;20059;-70
2023/11/17 01:05:42;;;;;;;7.05;2.85;;;10.20;99.90;;;9.66;100.00;101870.97;4192569;28;20028;-70
2023/11/17 01:07:44;;;;;;;7.53;3.47;;;10.20;99.90;;;9.67;100.00;101862.97;4193096;28;20058;-70
2023/11/17 01:09:45;;;;;;;7.07;3.58;;;10.20;99.90;;;9.68;100.00;101864.59;4186831;28;20025;-70
2023/11/17 01:11:46;;;;;;;6.72;2.95;;;10.20;99.90;;;9.66;100.00;101863.91;4186594;28;20035;-70
2023/11/17 01:13:47;;;;;;;4.55;2.30;;;10.20;99.90;;;9.64;100.00;101865.00;4186716;28;20476;-70
2023/11/17 01:15:48;;;;;;;4.72;1.45;;;10.20;99.90;;;9.62;100.00;101875.63;4186437;28;20040;-70
2023/11/17 01:17:49;;;;;;;3.17;1.30;;;10.20;99.90;;;9.62;100.00;101870.38;4193250;28;20070;-70
2023/11/17 01:19:50;;;;;;;2.95;1.67;;;10.20;99.90;;;9.60;100.00;101871.47;4201988;28;20025;-70
2023/11/17 01:21:51;;;;;;;5.20;2.17;;;10.10;99.90;;;9.60;100.00;101866.19;4193103;28;20029;-70
2023/11/17 01:23:52;;;;;;;7.32;2.08;;;10.10;99.90;;;9.58;100.00;101862.84;4186510;28;20154;-70
2023/11/17 01:25:54;;;;;;;6.05;2.08;;;10.10;99.90;;;9.53;100.00;101849.22;4189762;28;20029;-70
2023/11/17 01:27:55;;;;;;;6.05;2.00;;;10.10;99.90;;;9.53;100.00;101844.75;4201945;28;20028;-70
2023/11/17 01:29:56;;;;;;;6.70;2.58;;;10.10;99.90;;;9.51;100.00;101846.69;4203013;28;20480;-70
2023/11/17 01:31:57;;;;;;;4.53;1.73;;;10.10;99.90;;;9.44;100.00;101841.06;4202735;28;20041;-70
2023/11/17 01:33:57;;;;;;;3.92;1.55;;;10.00;99.90;;;9.40;100.00;101836.19;4193753;28;20029;-70
2023/11/17 01:35:58;;;;;;;4.32;1.85;;;10.00;99.90;;;9.28;100.00;101832.72;4191114;28;20071;-70
2023/11/17 01:38:01;;;;;;;7.53;3.15;;;9.90;99.90;;;9.19;100.00;101838.72;4194040;28;20039;-70
2023/11/17 01:40:05;;;;;;;4.07;2.03;;;9.80;99.90;;;9.06;100.00;101831.88;4198134;28;20102;-70
2023/11/17 01:42:06;;;;;;;4.93;2.60;;;9.70;99.90;;;8.95;100.00;101834.50;4189121;28;20055;-70
2023/11/17 01:44:06;;;;;;;4.90;2.45;;;9.60;99.90;;;8.84;100.00;101836.16;4197223;28;20056;-70
2023/11/17 01:46:07;;;;;;;7.78;3.78;;;9.50;99.90;;;8.79;100.00;101840.13;4202900;28;20024;-70
2023/11/17 01:48:08;;;;;;;9.35;3.33;;;9.40;99.90;;;8.73;100.00;101837.94;4190913;28;20029;-70
2023/11/17 01:50:12;;;;;;;5.30;2.63;;;9.40;99.90;;;8.74;100.00;101835.22;4186016;28;20024;-70
2023/11/17 01:52:13;;;;;;;4.68;1.60;;;9.40;99.90;;;8.71;100.00;101838.09;4190556;28;20028;-70
2023/11/17 01:54:14;;;;;;;6.70;2.05;;;9.40;99.90;;;8.74;100.00;101850.16;4193856;28;20037;-70
2023/11/17 01:56:15;;;;;;;3.55;1.50;;;9.40;99.90;;;8.75;100.00;101847.41;4184705;28;20518;-70
2023/11/17 01:58:16;;;;;;;5.60;2.70;;;9.40;99.90;;;8.71;100.00;101840.72;4184902;28;20436;-70
2023/11/17 02:00:19;;;;;;;4.57;2.63;;;9.30;99.90;;;8.64;100.00;101844.75;4189483;28;20016;-70
2023/11/17 02:02:20;;;;;;;7.00;1.90;;;9.30;99.90;;;8.58;100.00;101844.38;4199374;28;20484;-70
2023/11/17 02:04:20;;;;;;;4.50;2.13;;;9.20;99.90;;;8.50;100.00;101839.72;4189827;28;20027;-70
2023/11/17 02:06:47;;;;;;;5.78;1.90;;;9.20;99.90;;;8.47;100.00;101842.56;4185766;28;20041;-70
2023/11/17 02:09:16;;;;;;;5.03;1.48;;;9.10;99.90;;;8.44;100.00;101844.59;4200878;28;20546;-70
2023/11/17 02:11:39;;;;;;;6.10;1.70;;;9.10;99.90;;;8.42;100.00;101849.97;4216599;28;20060;-70
2023/11/17 02:13:58;;;;;;;6.20;1.33;;;9.10;99.90;;;8.37;100.00;101844.19;4201677;28;20052;-70
2023/11/17 02:16:03;;;;;;;5.97;1.83;;;9.00;99.90;;;8.34;100.00;101849.69;4201059;28;20028;-70
2023/11/17 02:18:10;;;;;;;8.40;1.58;;;9.00;99.90;;;8.30;100.00;101843.81;4184830;28;20540;-70
2023/11/17 02:20:13;;;;;;;6.72;1.63;;;8.90;99.90;;;8.28;100.00;101852.78;4200928;28;20117;-70
2023/11/17 02:22:19;;;;;;;11.20;3.13;;;8.90;99.90;;;8.23;100.00;101845.22;4197652;28;20024;-70
2023/11/17 02:24:22;;;;;;;10.18;2.47;;;8.90;99.90;;;8.22;100.00;101845.31;4189417;28;20033;-70
2023/11/17 02:26:52;;;;;;;7.38;3.25;;;8.80;99.90;;;8.19;100.00;101851.63;4202031;28;20060;-70
2023/11/17 02:29:00;;;;;;;7.32;2.58;;;8.80;99.90;;;8.15;100.00;101849.38;4176301;28;20029;-70
2023/11/17 02:31:29;;;;;;;6.55;2.78;;;8.80;99.90;;;8.09;100.00;101847.19;4190564;28;20039;-70
2023/11/17 02:33:27;;;;;;;6.03;1.70;;;8.70;99.90;;;8.06;100.00;101848.25;4200071;28;20052;-70
2023/11/17 02:35:29;;;;;;;6.82;1.38;;;8.70;99.90;;;8.04;100.00;101849.28;4186868;28;20029;-70
2023/11/17 02:37:30;;;;;;;5.93;2.08;;;8.70;99.90;;;8.02;100.00;101841.53;4194571;28;20581;-70
2023/11/17 02:39:36;;;;;;;4.10;1.98;;;8.60;99.90;;;7.99;100.00;101844.41;4193577;28;20029;-70
2023/11/17 02:41:38;;;;;;;6.35;1.27;;;8.60;99.90;;;7.99;100.00;101846.19;4208097;28;20028;-70
2023/11/17 02:43:42;;;;;;;7.53;2.30;;;8.60;99.90;;;7.94;100.00;101845.69;4186327;28;20457;-70
2023/11/17 02:45:45;;;;;;;8.00;2.97;;;8.60;99.90;;;7.93;100.00;101841.38;4184079;28;20032;-70
2023/11/17 02:47:49;;;;;;;4.35;1.15;;;8.50;99.90;;;7.96;100.00;101851.66;4184049;28;20029;-70
2023/11/17 02:49:58;;;;;;;2.95;1.00;;;8.50;99.90;;;7.87;100.00;101842.66;4185342;28;20091;-70
2023/11/17 02:52:03;;;;;;;11.20;1.80;;;8.50;99.90;;;7.85;100.00;101854.22;4189108;28;20036;-70
2023/11/17 02:54:08;;;;;;;6.93;1.73;;;8.40;99.90;;;7.81;100.00;101835.22;4192822;28;20083;-70
2023/11/17 02:56:09;;;;;;;14.75;5.22;;;8.40;99.90;;;7.77;100.00;101837.22;4207197;28;20028;-70
2023/11/17 02:58:12;;;;;;;9.68;2.88;;;8.40;99.90;;;7.82;100.00;101854.47;4217368;28;20028;-70
2023/11/17 03:00:14;;;;;;;9.35;1.92;;;8.40;99.90;;;7.82;100.00;101864.97;4217422;28;20115;-70
2023/11/17 03:02:19;;;;;;;11.35;2.95;;;8.40;99.90;;;7.79;100.00;101853.72;4213413;28;20020;-70
2023/11/17 03:04:19;;;;;;;12.15;3.80;;;8.40;99.90;;;7.72;100.00;101847.25;4200609;28;20442;-70
2023/11/17 03:06:21;;;;;;;7.30;3.40;;;8.30;99.90;;;7.67;100.00;101846.75;4201645;28;20042;-70
2023/11/17 03:08:21;;;;;;;9.90;1.85;;;8.30;99.90;;;7.66;100.00;101845.06;4200629;28;20032;-70
2023/11/17 03:10:24;;;;;;;5.93;2.83;;;8.30;99.90;;;7.61;100.00;101847.19;4201798;28;20031;-70
2023/11/17 03:12:27;;;;;;;17.88;8.20;;;8.20;99.90;;;7.63;100.00;101841.81;4196672;28;20029;-70
2023/11/17 03:14:28;;;;;;;27.58;12.10;;;8.20;99.90;;;7.59;100.00;101832.47;4201894;28;20383;-70
2023/11/17 03:16:29;;;;;;;17.52;7.15;;;8.20;99.90;;;7.61;100.00;101841.09;4203968;28;20028;-70
2023/11/17 03:18:38;;;;;;;8.88;4.60;;;8.20;99.90;;;7.57;100.00;101839.63;4205132;28;20514;-70
2023/11/17 03:20:38;;;;;;;7.18;3.85;;;8.10;99.90;;;7.54;100.00;101832.81;4203985;28;20060;-70
2023/11/17 03:22:45;;;;;;;8.02;3.42;;;8.10;99.90;;;7.58;100.00;101826.41;4205123;28;20043;-70
2023/11/17 03:24:46;;;;;;;6.97;3.35;;;8.20;99.90;;;7.57;100.00;101827.34;4205053;28;20020;-70
2023/11/17 03:26:54;;;;;;;9.40;4.18;;;8.20;99.90;;;7.61;100.00;101826.19;4204797;28;20506;-70
2023/11/17 03:28:56;;;;;;;10.65;4.00;;;8.20;99.90;;;7.63;100.00;101824.28;4203853;28;20075;-70
2023/11/17 03:30:56;;;;;;;8.63;4.00;;;8.20;99.90;;;7.64;100.00;101825.97;4203841;28;20033;-70
2023/11/17 03:32:57;;;;;;;6.63;3.20;;;8.30;99.90;;;7.60;100.00;101823.66;4204608;28;20086;-70
2023/11/17 03:34:58;;;;;;;6.75;3.15;;;8.20;99.90;;;7.59;100.00;101833.31;4191791;28;20029;-70
2023/11/17 03:37:01;;;;;;;8.20;2.65;;;8.20;99.90;;;7.55;100.00;101821.38;4188015;28;20550;-70
2023/11/17 03:39:02;;;;;;;7.50;2.30;;;8.20;99.90;;;7.53;100.00;101828.50;4197961;28;20032;-70
2023/11/17 03:41:03;;;;;;;8.40;1.92;;;8.10;99.90;;;7.48;100.00;101828.00;4200230;28;20028;-70
2023/11/17 03:43:05;;;;;;;5.70;2.38;;;8.10;99.90;;;7.49;100.00;101832.31;4192941;28;20107;-70
2023/11/17 03:45:08;;;;;;;10.88;3.08;;;8.00;99.90;;;7.56;100.00;101837.94;4202006;28;20021;-70
2023/11/17 03:47:09;;;;;;;6.85;2.47;;;8.10;99.90;;;7.57;100.00;101834.38;4198118;28;20123;-70
2023/11/17 03:49:11;;;;;;;8.65;2.20;;;8.00;99.90;;;7.56;100.00;101830.91;4195608;28;20028;-70
2023/11/17 03:51:14;;;;;;;5.55;2.15;;;8.10;99.90;;;7.55;100.00;101847.63;4191007;28;20040;-70
2023/11/17 03:53:15;;;;;;;8.90;2.15;;;8.10;99.90;;;7.52;100.00;101839.13;4187698;28;20110;-71
2023/11/17 03:55:17;;;;;;;7.30;2.63;;;8.10;99.90;;;7.50;100.00;101838.38;4197666;28;20035;-70
2023/11/17 03:57:20;;;;;;;12.02;2.92;;;8.00;99.90;;;7.52;100.00;101834.72;4195350;28;20029;-70
2023/11/17 03:59:30;;;;;;;7.63;2.92;;;8.00;99.90;;;7.52;100.00;101829.47;4211963;28;20024;-70
2023/11/17 04:01:33;;;;;;;9.88;2.85;;;8.00;99.90;;;7.50;100.00;101843.63;4219084;28;20130;-70
2023/11/17 04:03:34;;;;;;;6.95;2.45;;;8.00;99.90;;;7.43;100.00;101842.41;4196997;28;20042;-70
2023/11/17 04:05:35;;;;;;;10.60;2.20;;;8.00;99.90;;;7.42;100.00;101840.72;4187860;28;20029;-70
2023/11/17 04:07:36;;;;;;;6.45;1.88;;;7.90;99.90;;;7.41;100.00;101853.00;4214723;28;20020;-70
2023/11/17 04:09:37;;;;;;;7.75;1.90;;;7.90;99.90;;;7.34;100.00;101851.75;4200941;28;20048;-70
2023/11/17 04:11:39;;;;;;;3.90;1.60;;;7.90;99.90;;;7.27;100.00;101852.28;4202833;28;20025;-70
2023/11/17 04:13:44;;;;;;;5.05;2.00;;;7.90;99.90;;;7.19;100.00;101855.47;4196857;28;20025;-70
2023/11/17 04:15:45;;;;;;;8.80;2.17;;;7.80;99.90;;;7.09;100.00;101854.41;4219498;28;20039;-70
2023/11/17 04:17:46;;;;;;;4.72;1.70;;;7.80;99.90;;;7.05;100.00;101859.03;4200412;28;20021;-70
2023/11/17 04:19:47;;;;;;;8.32;2.00;;;7.70;99.90;;;7.04;100.00;101856.53;4194068;28;20034;-70
2023/11/17 04:21:49;;;;;;;8.55;1.77;;;7.70;99.90;;;7.01;100.00;101849.72;4194439;28;20078;-69
2023/11/17 04:23:50;;;;;;;9.20;1.73;;;7.60;99.90;;;7.02;100.00;101861.03;4212451;28;20059;-69
2023/11/17 04:25:51;;;;;;;11.02;2.38;;;7.60;99.90;;;7.02;100.00;101859.25;4187624;28;20032;-70
2023/11/17 04:27:52;;;;;;;12.55;4.65;;;7.60;99.90;;;7.02;100.00;101863.63;4187313;28;20044;-70
2023/11/17 04:29:53;;;;;;;10.57;3.28;;;7.60;99.90;;;7.01;100.00;101867.22;4205044;28;20028;-70
2023/11/17 04:31:54;;;;;;;10.00;3.03;;;7.60;99.90;;;7.03;100.00;101867.94;4191065;28;20032;-70
2023/11/17 04:33:55;;;;;;;13.77;2.30;;;7.60;99.90;;;7.00;100.00;101870.78;4188656;28;21391;-70
2023/11/17 04:35:56;;;;;;;9.82;3.13;;;7.60;99.90;;;6.97;100.00;101861.34;4197628;28;20033;-70
2023/11/17 04:37:57;;;;;;;8.23;2.53;;;7.60;99.90;;;7.01;100.00;101864.59;4187331;28;20022;-69
2023/11/17 04:39:58;;;;;;;5.80;2.80;;;7.60;99.90;;;7.03;100.00;101873.19;4187284;28;20059;-70
2023/11/17 04:41:59;;;;;;;5.00;2.38;;;7.60;99.90;;;7.04;100.00;101874.88;4200065;28;20102;-70
2023/11/17 04:43:59;;;;;;;10.57;2.47;;;7.60;99.90;;;7.02;100.00;101884.63;4195539;28;20036;-69
2023/11/17 04:46:03;;;;;;;10.35;2.15;;;7.60;99.90;;;7.00;100.00;101882.13;4187245;28;20041;-69
2023/11/17 04:48:05;;;;;;;4.50;1.95;;;7.60;99.90;;;6.98;100.00;101881.41;4187304;28;20081;-70
2023/11/17 04:50:10;;;;;;;8.60;2.00;;;7.60;99.90;;;6.96;100.00;101887.69;4187245;28;20033;-70
2023/11/17 04:52:10;;;;;;;6.68;2.90;;;7.60;99.90;;;6.94;100.00;101881.69;4198046;28;20024;-69
2023/11/17 04:54:14;;;;;;;5.80;3.17;;;7.50;99.90;;;6.92;100.00;101881.81;4193902;28;20039;-69
2023/11/17 04:56:17;;;;;;;4.95;1.88;;;7.50;99.90;;;6.88;100.00;101877.72;4211627;28;20112;-70
2023/11/17 04:58:18;;;;;;;5.82;1.90;;;7.50;99.90;;;6.84;100.00;101880.66;4200385;28;20025;-70
2023/11/17 05:00:20;;;;;;;5.45;1.67;;;7.50;99.90;;;6.83;100.00;101881.59;4198812;28;20107;-70
2023/11/17 05:02:20;;;;;;;5.93;1.52;;;7.50;99.90;;;6.80;100.00;101871.31;4193335;28;20028;-70
2023/11/17 05:04:21;;;;;;;8.85;2.60;;;7.50;99.90;;;6.79;100.00;101878.34;4212391;28;20031;-69
2023/11/17 05:06:23;;;;;;;7.25;1.85;;;7.40;99.90;;;6.76;100.00;101872.47;4186776;28;20041;-69
2023/11/17 05:08:24;;;;;;;6.72;1.45;;;7.40;99.90;;;6.75;100.00;101881.28;4186876;28;20036;-69
2023/11/17 05:10:26;;;;;;;10.50;1.55;;;7.40;99.90;;;6.72;100.00;101871.00;4205202;28;20036;-69
2023/11/17 05:12:27;;;;;;;7.90;2.08;;;7.40;99.90;;;6.69;100.00;101875.50;4190006;28;20449;-70
2023/11/17 05:14:28;;;;;;;5.95;1.40;;;7.40;99.90;;;6.72;100.00;101887.56;4189774;28;20029;-70
2023/11/17 05:16:29;;;;;;;6.63;2.15;;;7.40;99.90;;;6.69;100.00;101888.59;4203211;28;20035;-70
2023/11/17 05:18:30;;;;;;;4.78;1.40;;;7.40;99.90;;;6.71;100.00;101885.06;4193364;28;20029;-70
2023/11/17 05:20:31;;;;;;;7.82;1.20;;;7.40;99.90;;;6.72;100.00;101884.94;4198592;28;20025;-70
2023/11/17 05:22:31;;;;;;;3.83;1.60;;;7.40;99.90;;;6.72;100.00;101889.34;4202061;28;20541;-69
2023/11/17 05:24:33;;;;;;;7.65;1.70;;;7.40;99.90;;;6.66;100.00;101888.81;4203229;28;20023;-70
2023/11/17 05:26:34;;;;;;;10.00;1.77;;;7.40;99.90;;;6.66;100.00;101888.81;4201875;28;20396;-69
2023/11/17 05:28:35;;;;;;;8.25;1.98;;;7.30;99.90;;;6.63;100.00;101883.78;4189582;28;20074;-69
2023/11/17 05:30:37;;;;;;;9.65;1.58;;;7.30;99.90;;;6.59;100.00;101879.69;4201894;28;20028;-69
2023/11/17 05:32:40;;;;;;;9.45;2.15;;;7.30;99.90;;;6.59;100.00;101884.09;4202885;28;20042;-70
2023/11/17 05:34:40;;;;;;;3.63;1.35;;;7.30;99.90;;;6.62;100.00;101886.50;4193494;28;20032;-70
2023/11/17 05:36:43;;;;;;;4.10;1.48;;;7.30;99.90;;;6.60;100.00;101889.22;4186339;28;20107;-69
2023/11/17 05:38:43;;;;;;;8.40;1.73;;;7.30;99.90;;;6.61;100.00;101895.31;4185676;28;20044;-69
2023/11/17 05:40:44;;;;;;;7.25;1.63;;;7.30;99.90;;;6.59;100.00;101890.19;4193599;28;20408;-69
2023/11/17 05:42:45;;;;;;;5.47;1.55;;;7.20;99.90;;;6.58;100.00;101891.13;4186115;28;20485;-70
2023/11/17 05:44:46;;;;;;;4.65;1.40;;;7.20;99.90;;;6.56;100.00;101898.25;4186225;28;20025;-70
2023/11/17 05:46:47;;;;;;;4.53;1.45;;;7.20;99.90;;;6.59;100.00;101898.03;4199788;28;20443;-69
2023/11/17 05:48:50;;;;;;;5.93;2.15;;;7.30;99.90;;;6.57;100.00;101899.91;4201571;28;20376;-70
2023/11/17 05:50:50;;;;;;;8.52;2.53;;;7.20;99.90;;;6.57;100.00;101894.66;4194772;28;20025;-69
2023/11/17 05:52:51;;;;;;;7.65;2.72;;;7.20;99.90;;;6.56;100.00;101897.41;4186041;28;20036;-69
2023/11/17 05:54:53;;;;;;;9.85;2.55;;;7.20;99.90;;;6.53;100.00;101893.22;4185926;28;20037;-69
2023/11/17 05:56:55;;;;;;;14.98;3.22;;;7.20;99.90;;;6.53;100.00;101901.06;4185804;28;20051;-69
2023/11/17 05:58:57;;;;;;;6.97;3.10;;;7.20;99.90;;;6.53;100.00;101898.44;4186075;28;20049;-70
2023/11/17 06:00:57;;;;;;;11.35;3.20;;;7.20;99.90;;;6.51;100.00;101910.81;4186037;28;20361;-70
2023/11/17 06:02:58;;;;;;;12.23;3.42;;;7.20;99.90;;;6.49;100.00;101904.81;4185987;28;20143;-70
2023/11/17 06:04:59;;;;;;;10.75;3.85;;;7.20;99.90;;;6.52;100.00;101912.50;4186029;28;20514;-70
2023/11/17 06:07:01;;;;;;;7.57;2.85;;;7.20;99.90;;;6.52;100.00;101915.09;4186008;28;20029;-70
2023/11/17 06:09:02;;;;;;;7.90;2.72;;;7.20;99.90;;;6.52;100.00;101911.66;4206070;28;20036;-69
2023/11/17 06:11:04;;;;;;;6.88;2.25;;;7.20;99.90;;;6.48;100.00;101910.19;4187942;28;20029;-70
2023/11/17 06:13:05;;;;;;;8.98;2.70;;;7.20;99.90;;;6.49;100.00;101915.31;4185891;28;20520;-69
2023/11/17 06:15:07;;;;;;;10.73;2.90;;;7.20;99.90;;;6.50;100.00;101922.25;4200377;28;20032;-69
2023/11/17 06:17:11;;;;;;;12.63;2.83;;;7.20;99.90;;;6.45;100.00;101900.72;4206104;28;20036;-69
2023/11/17 06:19:12;;;;;;;6.43;2.63;;;7.20;99.90;;;6.52;100.00;101915.09;4202080;28;20036;-70
2023/11/17 06:21:13;;;;;;;9.00;2.92;;;7.20;99.90;;;6.53;100.00;101915.97;4202327;28;20032;-70
2023/11/17 06:23:14;;;;;;;9.40;3.28;;;7.20;99.90;;;6.55;100.00;101916.69;4201188;28;20024;-70
2023/11/17 06:25:15;;;;;;;8.80;3.25;;;7.30;99.90;;;6.55;100.00;101914.91;4189837;28;20029;-69
2023/11/17 06:27:16;;;;;;;6.28;2.80;;;7.20;99.90;;;6.53;100.00;101903.69;4199980;28;20021;-70
2023/11/17 06:29:22;;;;;;;8.80;3.25;;;7.20;99.90;;;6.57;100.00;101920.06;4202285;28;20024;-70
2023/11/17 06:31:27;;;;;;;10.63;3.08;;;7.20;99.90;;;6.56;100.00;101907.88;4200807;28;20029;-70
2023/11/17 06:33:27;;;;;;;8.25;2.75;;;7.20;99.90;;;6.55;100.00;101916.69;4201819;28;20123;-70
2023/11/17 06:35:28;;;;;;;8.98;2.60;;;7.20;99.90;;;6.54;100.00;101910.59;4186501;28;20029;-70
2023/11/17 06:37:29;;;;;;;10.75;3.53;;;7.20;99.90;;;6.50;100.00;101903.91;4185529;28;20043;-70
2023/11/17 06:39:30;;;;;;;8.85;2.47;;;7.20;99.90;;;6.54;100.00;101915.84;4201481;28;20076;-70
2023/11/17 06:41:31;;;;;;;9.43;2.60;;;7.20;99.90;;;6.54;100.00;101913.22;4189822;28;20032;-69
2023/11/17 06:43:32;;;;;;;10.15;3.00;;;7.30;99.90;;;6.52;100.00;101907.25;4185241;28;20029;-69
2023/11/17 06:45:33;;;;;;;10.75;3.33;;;7.30;99.90;;;6.53;100.00;101908.09;4194432;28;20024;-69
2023/11/17 06:47:34;;;;;;;6.78;2.50;;;7.20;99.90;;;6.53;100.00;101913.34;4193654;28;20504;-69
2023/11/17 06:49:35;;;;;;;6.60;2.10;;;7.20;99.90;;;6.49;100.00;101907.44;4185903;28;20035;-69
2023/11/17 06:51:40;;;;;;;8.35;2.70;;;7.20;99.90;;;6.47;100.00;101911.97;4185008;28;20025;-69
2023/11/17 06:53:41;;;;;;;7.35;2.63;;;7.20;99.90;;;6.48;100.00;101920.66;4194534;28;20028;-69
2023/11/17 06:55:42;;;;;;;7.40;2.83;;;7.20;99.90;;;6.47;100.00;101925.06;4193316;28;20563;-69
2023/11/17 06:57:43;;;;;;;8.65;2.60;;;7.20;99.90;;;6.45;100.00;101936.59;4185031;28;20035;-69
2023/11/17 06:59:44;;;;;;;6.90;3.05;;;7.20;99.90;;;6.45;100.00;101934.78;4185016;28;20024;-69
2023/11/17 07:01:48;;;;;;;9.18;2.95;;;7.10;99.90;;;6.47;100.00;101945.19;4185281;28;20017;-69
2023/11/17 07:03:49;;;;;;;7.53;2.72;;;7.20;99.90;;;6.44;100.00;101932.28;4185205;28;20056;-69
2023/11/17 07:05:51;;;;;;;11.38;2.55;;;7.20;99.90;;;6.49;100.00;101938.06;4185143;28;20029;-69
2023/11/17 07:07:53;;;;;;;9.63;2.50;;;7.20;99.90;;;6.49;100.00;101938.06;4184984;28;20107;-69
2023/11/17 07:09:54;;;;;;;9.63;2.40;;;7.20;99.90;;;6.49;100.00;101940.69;4194713;28;20025;-69
2023/11/17 07:11:58;;;;;;;8.57;2.13;;;7.20;99.90;;;6.52;100.00;101943.09;4217214;28;20027;-69
2023/11/17 07:14:07;;;;;;;5.43;2.40;;;7.20;99.90;;;6.52;100.00;101943.94;4189327;28;20484;-70
2023/11/17 07:16:12;;;;;;;13.40;3.10;;;7.20;99.90;;;6.49;100.00;101948.53;4187415;28;20078;-70
2023/11/17 07:18:13;;;;;;;10.63;2.67;;;7.20;99.90;;;6.51;100.00;101962.41;4197557;28;20462;-72
2023/11/17 07:20:14;;;;;;;4.88;2.20;;;7.20;99.90;;;6.47;100.00;101956.53;4197113;28;20108;-72
2023/11/17 07:22:15;;;;;;;14.48;3.40;;;7.20;99.90;;;6.46;100.00;101965.31;4183546;28;20025;-70
2023/11/17 07:24:18;;;;;;;9.55;3.67;;;7.10;99.90;;;6.45;100.00;101962.81;4200582;28;20082;-72
2023/11/17 07:26:19;;;;;;;7.60;3.63;;;7.10;99.90;;;6.48;100.00;101971.28;4201360;28;20449;-69
2023/11/17 07:28:21;;;;;;;8.77;2.40;;;7.20;99.90;;;6.48;100.00;101968.66;4198692;28;20032;-69
2023/11/17 07:30:23;;;;;;;5.95;2.15;;;7.20;99.90;;;6.49;100.00;101972.97;4187918;28;20083;-69
2023/11/17 07:32:24;;;;;;;9.63;2.30;;;7.20;99.90;;;6.51;100.00;101973.72;4184885;28;20048;-69
2023/11/17 07:34:25;;;;;;;7.30;2.08;;;7.20;99.90;;;6.55;100.00;101972.56;4205663;28;20103;-69
2023/11/17 07:36:28;;;;;;;7.82;1.95;;;7.20;99.90;;;6.57;100.00;101981.16;4191270;28;20017;-69
2023/11/17 07:38:29;;;;;;;7.05;2.17;;;7.20;99.90;;;6.61;100.00;101969.56;4192726;28;20017;-69
2023/11/17 07:40:30;;;;;;;12.18;2.80;;;7.30;99.90;;;6.66;100.00;101977.09;4184971;28;20032;-69
2023/11/17 07:42:31;;;;;;;10.43;1.92;;;7.30;99.90;;;6.69;100.00;101977.75;4184754;28;20029;-69
2023/11/17 07:44:33;;;;;;;3.40;2.03;;;7.40;99.90;;;6.74;100.00;101984.47;4184848;28;20133;-69
2023/11/17 07:46:35;;;;;;;8.80;2.15;;;7.40;99.90;;;6.81;100.00;101985.78;4184709;28;20033;-69
2023/11/17 07:48:36;;;;;;;6.65;2.20;;;7.50;99.90;;;6.85;100.00;101980.22;4190526;28;20090;-70
2023/11/17 07:50:41;;;;;;;7.43;2.60;;;7.50;99.90;;;6.91;100.00;101981.56;4183558;28;20049;-70
2023/11/17 07:52:45;;;;;;;12.10;3.17;;;7.60;99.90;;;6.91;100.00;101981.56;4184725;28;20029;-70
2023/11/17 07:54:46;;;;;;;9.50;3.67;;;7.60;99.90;;;6.95;100.00;101985.69;4184640;28;20112;-70
2023/11/17 07:56:47;;;;;;;13.18;5.10;;;7.60;99.90;;;6.98;100.00;101975.00;4187279;28;20040;-70
2023/11/17 07:58:48;;;;;;;6.53;4.20;;;7.60;99.90;;;6.98;100.00;101977.63;4194084;28;20032;-70
2023/11/17 08:00:50;;;;;;;10.88;4.85;;;7.60;99.90;;;6.97;100.00;101970.69;4205768;28;20054;-70
2023/11/17 08:02:51;;;;;;;9.27;4.43;;;7.70;99.90;;;6.99;100.00;101981.94;4219956;28;20059;-70
2023/11/17 08:04:51;;;;;;;10.32;4.78;;;7.70;99.90;;;6.99;100.00;101976.69;4200437;28;20025;-70
2023/11/17 08:06:53;;;;;;;8.35;4.35;;;7.70;99.90;;;6.99;100.00;101972.25;4187902;28;20028;-69
2023/11/17 08:08:54;;;;;;;11.85;4.40;;;7.70;99.90;;;7.03;100.00;101980.75;4198081;28;20028;-69
2023/11/17 08:10:55;;;;;;;7.25;3.40;;;7.70;99.90;;;7.02;100.00;101979.91;4188380;28;20053;-70
2023/11/17 08:12:58;;;;;;;13.25;4.28;;;7.70;99.90;;;7.03;100.00;101986.00;4187835;28;20021;-69
2023/11/17 08:15:00;;;;;;;9.15;3.22;;;7.70;99.90;;;7.10;100.00;101988.13;4187859;28;20400;-69
2023/11/17 08:17:01;;;;;;;9.15;3.88;;;7.80;99.90;;;7.14;100.00;101983.50;4187604;28;20029;-70
2023/11/17 08:19:03;;;;;;;10.60;4.35;;;7.80;99.90;;;7.16;100.00;101982.47;4198988;28;20028;-69
2023/11/17 08:21:06;;;;;;;13.95;4.60;;;7.80;99.90;;;7.21;100.00;102001.34;4204289;28;20021;-70
2023/11/17 08:23:10;;;;;;;14.38;5.30;;;7.90;99.90;;;7.29;100.00;102003.44;4203128;28;20067;-70
2023/11/17 08:25:11;;;;;;;;;;;7.90;99.90;;;7.36;100.00;101998.63;4203373;28;20021;-69
2023/11/17 08:27:14;;;;;;;20.15;5.22;;;8.00;99.90;;;7.47;100.00;101996.94;4188538;28;19934;-69
2023/11/17 08:29:14;;;;;;;10.55;5.15;;;8.10;99.90;;;7.64;100.00;102011.56;4197444;28;20029;-69
2023/11/17 08:31:15;;;;;;;40.15;14.77;;;8.20;99.90;;;7.75;100.00;102015.13;4187558;28;20025;-69
2023/11/17 08:33:16;;;;;;;30.35;12.23;;;8.30;99.90;;;7.85;100.00;102012.69;4192197;28;20423;-69